Terminal Aerodrome Forecast
Issued by NWS

Home | Current Version | Previous Version | Text Only | Print | Product List | Glossary Off
Versions: 1 2 3 4 5 6 7 8 9 10 11 12 13 14 15 16 17 18 19 20 21 22 23 24 25 26 27 28 29

000
FTUS45 KGGW 170522
TAFGDV
TAF
KGDV 170522Z 1706/1806 23010KT P6SM BKN090
     FM170700 23010KT P6SM BKN080 WS020/27040KT
     FM171600 25016G24KT P6SM SCT200
     FM180500 24006KT P6SM FEW001 FEW025=

USA.gov is the U.S. government's official web portal to all federal, state and local government web resources and services.